Time;durP1;ratioP1;P1;durP2;ratioP2;P2;SDS_P1;SDS_P2;PMS_P1;PMS_P2;Temp;Humidity;BMP_temperature;BMP_pressure;BME280_temperature;BME280_humidity;BME280_pressure;Samples;Min_cycle;Max_cycle;Signal;HPM_P1;HPM_P2
2023/01/27 00:00:25;;;;;;;46.60;16.08;;;;;;;;;;5018116;28;20045;-79
2023/01/27 00:02:51;;;;;;;49.05;14.80;;;;;;;;;;5017411;28;20093;-79
2023/01/27 00:05:18;;;;;;;48.53;15.23;;;;;;;;;;5034064;28;20087;-79
2023/01/27 00:07:44;;;;;;;52.00;15.68;;;;;;;;;;5033134;28;20695;-78
2023/01/27 00:10:12;;;;;;;50.53;17.17;;;;;;;;;;5033880;28;20104;-79
2023/01/27 00:15:25;;;;;;;52.35;17.23;;;;;;;;;;4994484;28;20085;-79
2023/01/27 00:17:51;;;;;;;49.17;16.17;;;;;;;;;;4975801;28;20050;-79
2023/01/27 00:24:34;;;;;;;50.60;14.85;;;;;;;;;;4993163;28;20050;-79
2023/01/27 00:26:05;;;;;;;50.30;16.38;;;;;;;;;;4995223;28;20076;-79
2023/01/27 00:28:35;;;;;;;58.03;16.63;;;;;;;;;;4994638;28;20100;-79
2023/01/27 00:31:02;;;;;;;50.80;16.30;;;;;;;;;;4994853;28;20141;-79
2023/01/27 00:33:28;;;;;;;55.67;16.85;;;;;;;;;;4975680;28;20060;-79
2023/01/27 00:35:56;;;;;;;58.42;17.42;;;;;;;;;;4996229;28;20047;-78
2023/01/27 00:38:22;;;;;;;56.05;16.90;;;;;;;;;;4998673;28;20077;-79
2023/01/27 00:41:14;;;;;;;55.92;17.17;;;;;;;;;;4998977;28;20042;-79
2023/01/27 00:43:35;;;;;;;57.78;16.67;;;;;;;;;;4998045;28;20141;-77
2023/01/27 00:46:01;;;;;;;61.20;16.10;;;;;;;;;;4997318;28;20511;-78
2023/01/27 00:48:28;;;;;;;59.65;16.17;;;;;;;;;;4979746;28;20046;-78
2023/01/27 00:50:55;;;;;;;62.55;16.08;;;;;;;;;;5006010;28;20053;-77
2023/01/27 00:53:21;;;;;;;58.55;16.45;;;;;;;;;;5040160;28;20132;-78
2023/01/27 00:55:48;;;;;;;63.90;16.20;;;;;;;;;;5037561;28;20145;-78
2023/01/27 00:58:14;;;;;;;59.03;16.33;;;;;;;;;;5040383;28;20056;-78
2023/01/27 01:00:41;;;;;;;58.50;16.15;;;;;;;;;;5030428;28;20045;-79
2023/01/27 01:03:07;;;;;;;51.28;15.35;;;;;;;;;;5010250;28;20084;-79
2023/01/27 01:05:33;;;;;;;62.55;15.43;;;;;;;;;;5009797;28;20414;-80
2023/01/27 01:08:00;;;;;;;65.15;15.15;;;;;;;;;;5011630;28;20049;-79
2023/01/27 01:10:26;;;;;;;55.17;14.77;;;;;;;;;;5012926;28;20101;-80
2023/01/27 01:12:52;;;;;;;58.13;14.90;;;;;;;;;;5011615;28;20109;-79
2023/01/27 01:15:19;;;;;;;56.00;14.93;;;;;;;;;;5012806;28;20060;-80
2023/01/27 01:17:45;;;;;;;63.22;16.33;;;;;;;;;;5011112;28;20054;-78
2023/01/27 01:20:12;;;;;;;72.75;15.75;;;;;;;;;;5011772;28;20065;-80
2023/01/27 01:22:39;;;;;;;62.55;13.75;;;;;;;;;;5012389;28;20058;-79
2023/01/27 01:25:06;;;;;;;50.30;14.07;;;;;;;;;;5010652;28;20506;-78
2023/01/27 01:27:33;;;;;;;48.15;13.73;;;;;;;;;;5012344;28;20054;-79
2023/01/27 01:30:00;;;;;;;54.63;14.20;;;;;;;;;;4994584;28;20068;-80
2023/01/27 01:32:26;;;;;;;52.85;14.35;;;;;;;;;;5011465;28;20512;-78
2023/01/27 01:34:52;;;;;;;56.53;14.55;;;;;;;;;;4994159;28;20236;-78
2023/01/27 01:37:20;;;;;;;68.00;13.73;;;;;;;;;;5010500;28;20050;-79
2023/01/27 01:39:46;;;;;;;49.60;13.38;;;;;;;;;;5015830;28;20536;-79
2023/01/27 01:42:13;;;;;;;50.70;13.25;;;;;;;;;;5016408;28;20519;-79
2023/01/27 01:44:42;;;;;;;49.90;12.50;;;;;;;;;;5015017;28;20071;-78
2023/01/27 01:47:13;;;;;;;50.40;13.43;;;;;;;;;;5013816;28;20636;-78
2023/01/27 01:49:40;;;;;;;52.60;13.18;;;;;;;;;;5016789;28;20063;-78
2023/01/27 01:52:14;;;;;;;59.25;14.45;;;;;;;;;;5025544;28;20053;-78
2023/01/27 01:54:52;;;;;;;49.83;14.10;;;;;;;;;;5036489;28;20049;-79
2023/01/27 01:57:18;;;;;;;54.03;13.43;;;;;;;;;;5035463;28;20075;-77
2023/01/27 01:59:50;;;;;;;55.65;14.32;;;;;;;;;;5033317;28;20045;-78
2023/01/27 02:02:19;;;;;;;47.70;12.40;;;;;;;;;;5033506;28;20049;-78
2023/01/27 02:04:57;;;;;;;44.55;12.88;;;;;;;;;;5021857;28;20050;-78
2023/01/27 02:07:36;;;;;;;50.75;12.38;;;;;;;;;;5012047;28;20113;-77
2023/01/27 02:10:03;;;;;;;57.45;13.82;;;;;;;;;;5014187;28;20589;-78
2023/01/27 02:12:29;;;;;;;56.38;13.93;;;;;;;;;;5013289;28;20042;-79
2023/01/27 02:14:56;;;;;;;53.20;11.88;;;;;;;;;;4999327;28;20046;-78
2023/01/27 02:17:22;;;;;;;56.90;14.25;;;;;;;;;;4992672;28;20054;-78
2023/01/27 02:20:08;;;;;;;55.30;14.10;;;;;;;;;;4992385;28;20054;-79
2023/01/27 02:22:40;;;;;;;60.70;13.80;;;;;;;;;;4993479;28;20479;-79
2023/01/27 02:25:27;;;;;;;64.05;14.18;;;;;;;;;;4994245;28;20060;-79
2023/01/27 02:27:53;;;;;;;52.05;12.63;;;;;;;;;;4993346;28;20129;-80
2023/01/27 02:30:20;;;;;;;60.03;13.88;;;;;;;;;;4992807;28;20160;-78
2023/01/27 02:32:46;;;;;;;59.35;14.85;;;;;;;;;;4992760;28;20698;-77
2023/01/27 02:35:15;;;;;;;48.90;14.52;;;;;;;;;;4993840;28;20050;-79
2023/01/27 02:37:42;;;;;;;50.63;13.98;;;;;;;;;;4993514;28;20086;-78
2023/01/27 02:40:09;;;;;;;52.92;14.05;;;;;;;;;;4993786;28;20138;-78
2023/01/27 02:42:35;;;;;;;62.67;14.40;;;;;;;;;;4993203;28;20057;-78
2023/01/27 02:45:02;;;;;;;51.17;14.52;;;;;;;;;;4993657;28;20054;-78
2023/01/27 02:47:29;;;;;;;54.55;14.23;;;;;;;;;;4989752;28;20054;-78
2023/01/27 02:49:55;;;;;;;59.50;16.60;;;;;;;;;;5014362;28;20084;-78
2023/01/27 02:52:22;;;;;;;50.45;13.23;;;;;;;;;;5024166;28;20096;-78
2023/01/27 02:54:48;;;;;;;50.65;12.45;;;;;;;;;;5033655;28;20099;-79
2023/01/27 02:57:14;;;;;;;50.33;12.85;;;;;;;;;;5034937;28;20060;-79
2023/01/27 02:59:41;;;;;;;51.47;16.00;;;;;;;;;;5034684;28;20160;-78
2023/01/27 03:02:07;;;;;;;48.75;13.25;;;;;;;;;;5034697;28;20141;-79
2023/01/27 03:04:38;;;;;;;49.55;13.23;;;;;;;;;;5032927;28;20088;-78
2023/01/27 03:07:04;;;;;;;44.13;12.02;;;;;;;;;;5035846;28;20059;-77
2023/01/27 03:09:30;;;;;;;38.10;11.77;;;;;;;;;;5034865;28;20498;-79
2023/01/27 03:20:12;;;;;;;46.30;13.70;;;;;;;;;;5012184;28;20050;-78
2023/01/27 03:22:39;;;;;;;46.40;14.05;;;;;;;;;;5012099;28;20060;-79
2023/01/27 03:25:05;;;;;;;49.33;13.63;;;;;;;;;;4996301;28;20054;-78
2023/01/27 03:27:32;;;;;;;42.63;13.80;;;;;;;;;;5013838;28;20085;-78
2023/01/27 03:29:58;;;;;;;38.78;13.48;;;;;;;;;;5030254;28;20061;-76
2023/01/27 03:32:26;;;;;;;50.08;14.60;;;;;;;;;;5013608;28;20046;-79
2023/01/27 03:34:53;;;;;;;45.75;14.30;;;;;;;;;;5013140;28;20152;-79
2023/01/27 03:48:21;;;;;;;66.30;17.02;;;;;;;;;;5010505;28;20046;-78
2023/01/27 03:50:52;;;;;;;78.95;23.48;;;;;;;;;;5018863;28;20060;-77
2023/01/27 03:53:19;;;;;;;83.78;22.67;;;;;;;;;;5030249;28;20053;-78
2023/01/27 03:55:46;;;;;;;89.07;23.85;;;;;;;;;;5014927;28;20063;-80
2023/01/27 03:58:39;;;;;;;82.68;23.20;;;;;;;;;;5014731;28;20129;-78
2023/01/27 04:01:06;;;;;;;83.07;22.02;;;;;;;;;;5018194;28;20052;-79
2023/01/27 04:09:08;;;;;;;77.53;20.85;;;;;;;;;;5010837;28;20577;-78
2023/01/27 04:14:21;;;;;;;79.65;21.60;;;;;;;;;;5011857;28;20073;-79
2023/01/27 04:16:49;;;;;;;81.95;22.83;;;;;;;;;;5012544;28;20065;-79
2023/01/27 04:19:15;;;;;;;100.40;25.65;;;;;;;;;;5009698;28;20046;-78
2023/01/27 04:21:42;;;;;;;109.68;27.92;;;;;;;;;;5010280;28;20057;-78
2023/01/27 04:24:16;;;;;;;101.90;26.25;;;;;;;;;;4993962;28;20050;-78
2023/01/27 04:26:43;;;;;;;93.22;26.95;;;;;;;;;;5011568;28;20046;-78
2023/01/27 04:29:10;;;;;;;104.18;28.52;;;;;;;;;;5011523;28;20475;-78
2023/01/27 04:31:37;;;;;;;81.20;23.48;;;;;;;;;;5015659;28;20050;-79
2023/01/27 04:34:03;;;;;;;75.30;22.05;;;;;;;;;;5012863;28;20053;-79
2023/01/27 04:36:30;;;;;;;65.25;20.05;;;;;;;;;;5011128;28;20065;-78
2023/01/27 04:38:56;;;;;;;77.13;21.88;;;;;;;;;;5013873;28;20042;-79
2023/01/27 04:41:23;;;;;;;66.22;21.13;;;;;;;;;;4998392;28;20056;-79
2023/01/27 04:43:49;;;;;;;90.35;23.88;;;;;;;;;;5017074;28;20050;-80
2023/01/27 04:46:15;;;;;;;99.35;27.42;;;;;;;;;;5017083;28;20128;-78
2023/01/27 04:48:42;;;;;;;84.97;24.40;;;;;;;;;;5015766;28;20038;-80
2023/01/27 04:51:08;;;;;;;100.45;24.50;;;;;;;;;;5025293;28;20045;-80
2023/01/27 04:53:35;;;;;;;82.18;22.58;;;;;;;;;;5018437;28;20113;-79
2023/01/27 04:56:03;;;;;;;106.57;26.58;;;;;;;;;;5000174;28;20041;-79
2023/01/27 04:58:29;;;;;;;111.25;29.33;;;;;;;;;;5015682;28;20439;-78
2023/01/27 05:00:55;;;;;;;112.18;30.45;;;;;;;;;;5016235;28;20046;-80
2023/01/27 05:03:22;;;;;;;94.43;25.45;;;;;;;;;;5017222;28;20550;-78
2023/01/27 05:05:48;;;;;;;104.70;27.05;;;;;;;;;;5017505;28;20050;-80
2023/01/27 05:08:15;;;;;;;134.13;32.42;;;;;;;;;;5017300;28;20105;-79
2023/01/27 05:10:42;;;;;;;129.30;33.10;;;;;;;;;;5018264;28;20064;-79
2023/01/27 05:13:08;;;;;;;94.75;25.70;;;;;;;;;;5020596;28;20054;-80
2023/01/27 05:15:34;;;;;;;142.45;40.20;;;;;;;;;;5023518;28;20056;-80
2023/01/27 05:18:01;;;;;;;130.82;34.85;;;;;;;;;;5020267;28;20045;-80
2023/01/27 05:20:28;;;;;;;113.13;30.30;;;;;;;;;;5003157;28;20054;-81
2023/01/27 05:23:33;;;;;;;120.18;31.75;;;;;;;;;;5023050;28;20137;-80
2023/01/27 05:25:43;;;;;;;101.50;25.25;;;;;;;;;;5024503;28;20113;-80
2023/01/27 05:28:10;;;;;;;103.35;26.05;;;;;;;;;;5013196;28;20054;-78
2023/01/27 05:30:37;;;;;;;104.13;25.73;;;;;;;;;;5012156;28;20049;-78
2023/01/27 05:33:03;;;;;;;115.00;27.08;;;;;;;;;;5011147;28;20096;-77
2023/01/27 05:35:33;;;;;;;123.40;28.38;;;;;;;;;;5011835;28;20049;-78
2023/01/27 05:37:59;;;;;;;119.15;28.77;;;;;;;;;;5021894;28;20046;-80
2023/01/27 05:40:26;;;;;;;126.78;32.15;;;;;;;;;;5025487;28;20056;-80
2023/01/27 05:42:53;;;;;;;110.57;29.15;;;;;;;;;;5006497;28;20042;-80
2023/01/27 05:45:19;;;;;;;130.98;31.52;;;;;;;;;;5007385;28;20088;-80
2023/01/27 05:47:49;;;;;;;117.13;28.50;;;;;;;;;;5023842;28;20073;-79
2023/01/27 05:50:16;;;;;;;128.70;31.70;;;;;;;;;;5029397;28;20818;-80
2023/01/27 05:52:43;;;;;;;106.03;26.20;;;;;;;;;;5017702;28;20132;-80
2023/01/27 05:55:09;;;;;;;106.80;26.05;;;;;;;;;;5043564;28;20045;-80
2023/01/27 05:57:35;;;;;;;106.72;25.77;;;;;;;;;;5042093;28;20053;-81
2023/01/27 06:00:02;;;;;;;97.97;24.23;;;;;;;;;;5043687;28;20049;-81
2023/01/27 06:02:28;;;;;;;117.18;26.55;;;;;;;;;;5025203;28;20069;-81
2023/01/27 06:04:55;;;;;;;109.43;26.70;;;;;;;;;;5023923;28;20402;-80
2023/01/27 06:07:21;;;;;;;104.90;25.15;;;;;;;;;;5021075;28;20121;-80
2023/01/27 06:09:48;;;;;;;85.15;22.88;;;;;;;;;;5023744;28;20054;-80
2023/01/27 06:12:14;;;;;;;104.85;23.23;;;;;;;;;;5030295;28;20129;-78
2023/01/27 06:14:41;;;;;;;95.60;24.63;;;;;;;;;;5012904;28;20434;-80
2023/01/27 06:17:07;;;;;;;115.78;28.48;;;;;;;;;;5010724;28;20460;-80
2023/01/27 06:19:33;;;;;;;116.47;26.40;;;;;;;;;;4998955;28;20458;-80
2023/01/27 06:22:01;;;;;;;106.13;25.75;;;;;;;;;;5012318;28;20054;-80
2023/01/27 06:24:28;;;;;;;108.82;24.88;;;;;;;;;;4998304;28;20076;-80
2023/01/27 06:26:54;;;;;;;120.53;24.25;;;;;;;;;;5002576;28;20047;-81
2023/01/27 06:29:23;;;;;;;97.65;23.52;;;;;;;;;;5003865;28;20256;-81
2023/01/27 06:31:50;;;;;;;107.07;23.83;;;;;;;;;;5018829;28;20053;-81
2023/01/27 06:34:16;;;;;;;100.00;25.05;;;;;;;;;;5016962;28;20054;-80
2023/01/27 06:36:42;;;;;;;109.28;24.25;;;;;;;;;;5017019;28;20046;-79
2023/01/27 06:39:09;;;;;;;90.90;23.17;;;;;;;;;;4996069;28;20054;-80
2023/01/27 06:41:35;;;;;;;97.13;23.88;;;;;;;;;;5013830;28;20054;-80
2023/01/27 06:44:01;;;;;;;101.72;24.55;;;;;;;;;;5014088;28;20327;-79
2023/01/27 06:46:29;;;;;;;112.20;23.05;;;;;;;;;;5008841;28;20506;-79
2023/01/27 06:48:56;;;;;;;97.80;23.38;;;;;;;;;;5003145;28;20120;-79
2023/01/27 06:51:22;;;;;;;98.78;23.13;;;;;;;;;;5019709;28;20056;-79
2023/01/27 06:53:48;;;;;;;98.57;23.70;;;;;;;;;;5011654;28;20088;-79
2023/01/27 06:56:15;;;;;;;93.22;24.83;;;;;;;;;;5015363;28;20058;-79
2023/01/27 06:58:43;;;;;;;78.97;21.17;;;;;;;;;;5009253;28;20141;-79
2023/01/27 07:01:09;;;;;;;83.50;20.60;;;;;;;;;;5013451;28;20060;-78
2023/01/27 07:03:36;;;;;;;87.32;22.38;;;;;;;;;;5012461;28;20046;-80
2023/01/27 07:06:02;;;;;;;87.45;22.55;;;;;;;;;;5012425;28;20100;-80
2023/01/27 07:08:28;;;;;;;74.43;20.85;;;;;;;;;;5014447;28;20057;-80
2023/01/27 07:10:55;;;;;;;83.72;21.77;;;;;;;;;;5016195;28;20241;-80
2023/01/27 07:13:22;;;;;;;71.70;20.02;;;;;;;;;;5011269;28;20549;-79
2023/01/27 07:15:52;;;;;;;75.13;20.95;;;;;;;;;;4996896;28;20057;-79
2023/01/27 07:18:19;;;;;;;63.53;18.65;;;;;;;;;;4995695;28;20073;-79
2023/01/27 07:20:45;;;;;;;62.42;18.58;;;;;;;;;;4996951;28;20073;-79
2023/01/27 07:23:12;;;;;;;54.55;17.50;;;;;;;;;;4997061;28;20554;-79
2023/01/27 07:25:38;;;;;;;56.30;18.30;;;;;;;;;;5010409;28;20050;-79
2023/01/27 07:28:05;;;;;;;59.33;18.48;;;;;;;;;;5017096;28;20133;-79
2023/01/27 07:30:32;;;;;;;64.05;18.90;;;;;;;;;;5016692;28;20053;-79
2023/01/27 07:33:06;;;;;;;55.60;15.85;;;;;;;;;;5016559;28;20078;-80
2023/01/27 07:35:34;;;;;;;43.97;14.23;;;;;;;;;;5014661;28;20119;-80
2023/01/27 07:38:01;;;;;;;43.92;13.07;;;;;;;;;;5018281;28;20493;-79
2023/01/27 07:40:27;;;;;;;37.75;12.50;;;;;;;;;;5018315;28;20514;-80
2023/01/27 07:42:56;;;;;;;44.92;14.00;;;;;;;;;;5017716;28;20133;-80
2023/01/27 07:45:23;;;;;;;41.08;13.20;;;;;;;;;;5018350;28;20050;-80
2023/01/27 07:47:49;;;;;;;39.33;12.85;;;;;;;;;;5017271;28;20097;-80
2023/01/27 07:50:16;;;;;;;38.65;12.05;;;;;;;;;;5024566;28;20050;-80
2023/01/27 07:52:42;;;;;;;44.15;13.95;;;;;;;;;;5030591;28;20125;-80
2023/01/27 07:55:09;;;;;;;43.25;13.68;;;;;;;;;;5037123;28;20050;-79
2023/01/27 07:57:35;;;;;;;37.08;11.38;;;;;;;;;;5018148;28;20050;-79
2023/01/27 08:00:04;;;;;;;36.80;13.18;;;;;;;;;;5018595;28;20046;-79
2023/01/27 08:02:31;;;;;;;37.97;12.07;;;;;;;;;;5018393;28;20042;-80
2023/01/27 08:04:58;;;;;;;48.35;15.48;;;;;;;;;;5017699;28;20056;-80
2023/01/27 08:07:24;;;;;;;46.67;15.52;;;;;;;;;;5019184;28;20053;-80
2023/01/27 08:09:53;;;;;;;34.90;12.00;;;;;;;;;;5019985;28;20078;-80
2023/01/27 08:12:19;;;;;;;35.50;11.25;;;;;;;;;;5019880;28;20136;-80
2023/01/27 08:14:46;;;;;;;35.45;11.35;;;;;;;;;;5018855;28;20050;-79
2023/01/27 08:17:12;;;;;;;31.98;10.32;;;;;;;;;;5015740;28;20046;-77
2023/01/27 08:19:38;;;;;;;33.42;11.05;;;;;;;;;;5015939;28;20834;-79
2023/01/27 08:22:05;;;;;;;32.45;10.10;;;;;;;;;;5013639;28;20046;-79
2023/01/27 08:24:31;;;;;;;25.95;9.13;;;;;;;;;;5013861;28;20118;-78
2023/01/27 08:26:58;;;;;;;27.02;9.27;;;;;;;;;;5014033;28;20061;-79
2023/01/27 08:29:24;;;;;;;32.85;11.82;;;;;;;;;;5013679;28;20079;-78
2023/01/27 08:31:51;;;;;;;26.85;9.07;;;;;;;;;;5013381;28;20060;-79
2023/01/27 08:34:17;;;;;;;27.42;8.85;;;;;;;;;;5010676;28;20077;-78
2023/01/27 08:36:44;;;;;;;26.42;9.23;;;;;;;;;;5012184;28;20137;-80
2023/01/27 08:39:10;;;;;;;32.13;10.02;;;;;;;;;;5011893;28;20053;-78
2023/01/27 08:41:37;;;;;;;27.33;8.90;;;;;;;;;;5012345;28;20691;-79
2023/01/27 08:44:04;;;;;;;28.98;9.18;;;;;;;;;;5011854;28;20089;-79
2023/01/27 08:46:30;;;;;;;28.35;8.95;;;;;;;;;;5013143;28;20473;-80
2023/01/27 08:48:56;;;;;;;25.25;9.05;;;;;;;;;;5014276;28;20050;-79
2023/01/27 08:51:23;;;;;;;36.92;11.63;;;;;;;;;;5026491;28;20054;-79
2023/01/27 08:53:49;;;;;;;30.95;10.25;;;;;;;;;;5020025;28;20053;-79
2023/01/27 08:56:16;;;;;;;30.77;9.07;;;;;;;;;;5035508;28;20064;-79
2023/01/27 08:58:44;;;;;;;22.75;8.40;;;;;;;;;;5019950;28;20224;-80
2023/01/27 09:01:11;;;;;;;31.48;10.38;;;;;;;;;;5016256;28;20050;-79
2023/01/27 09:03:37;;;;;;;34.97;11.35;;;;;;;;;;5011987;28;20092;-79
2023/01/27 09:06:06;;;;;;;41.28;14.20;;;;;;;;;;5015625;28;20064;-80
2023/01/27 09:08:32;;;;;;;35.67;11.63;;;;;;;;;;5015750;28;20049;-79
2023/01/27 09:10:59;;;;;;;29.95;9.25;;;;;;;;;;5016965;28;20058;-79
2023/01/27 09:13:27;;;;;;;35.80;12.23;;;;;;;;;;5012388;28;20427;-79
2023/01/27 09:15:53;;;;;;;36.95;12.13;;;;;;;;;;5013085;28;20056;-79
2023/01/27 09:18:20;;;;;;;35.10;11.68;;;;;;;;;;5014513;28;20060;-80
2023/01/27 09:20:46;;;;;;;38.72;12.20;;;;;;;;;;5016188;28;20080;-80
2023/01/27 09:23:12;;;;;;;34.20;11.07;;;;;;;;;;5016242;28;20498;-80
2023/01/27 09:25:39;;;;;;;38.40;11.40;;;;;;;;;;5016231;28;20548;-80
2023/01/27 09:28:08;;;;;;;53.03;16.30;;;;;;;;;;5023877;28;20117;-79
2023/01/27 09:30:35;;;;;;;39.50;12.75;;;;;;;;;;5015981;28;20137;-80
2023/01/27 09:33:01;;;;;;;46.47;13.23;;;;;;;;;;5018334;28;20108;-80
2023/01/27 09:35:34;;;;;;;35.60;12.57;;;;;;;;;;5017300;28;20050;-79
2023/01/27 09:38:02;;;;;;;40.00;13.05;;;;;;;;;;5018665;28;20068;-77
2023/01/27 09:40:37;;;;;;;39.80;12.75;;;;;;;;;;5019648;28;20149;-79
2023/01/27 09:43:18;;;;;;;30.73;10.67;;;;;;;;;;5016815;28;20050;-79
2023/01/27 09:45:45;;;;;;;28.38;8.85;;;;;;;;;;5017861;28;20133;-80
2023/01/27 09:48:11;;;;;;;21.73;8.48;;;;;;;;;;5016978;28;20111;-80
2023/01/27 09:50:38;;;;;;;22.15;8.55;;;;;;;;;;5025234;28;20144;-80
2023/01/27 09:53:12;;;;;;;26.13;8.68;;;;;;;;;;5020431;28;20061;-80
2023/01/27 09:55:42;;;;;;;17.83;6.15;;;;;;;;;;5016604;28;20132;-79
2023/01/27 09:58:08;;;;;;;21.15;7.93;;;;;;;;;;5017508;28;20053;-80
2023/01/27 10:00:52;;;;;;;24.67;8.95;;;;;;;;;;5023008;28;20117;-80
2023/01/27 10:03:37;;;;;;;31.58;11.00;;;;;;;;;;5022299;28;20098;-79
2023/01/27 10:06:18;;;;;;;15.77;6.15;;;;;;;;;;5019359;28;20058;-79
2023/01/27 10:09:03;;;;;;;28.65;10.75;;;;;;;;;;5018237;28;20398;-79
2023/01/27 10:11:50;;;;;;;29.13;10.47;;;;;;;;;;5013589;28;20060;-79
2023/01/27 10:14:19;;;;;;;21.27;8.27;;;;;;;;;;5014242;28;20049;-79
2023/01/27 10:16:46;;;;;;;24.08;9.02;;;;;;;;;;5015492;28;20058;-79
2023/01/27 10:19:15;;;;;;;24.52;9.35;;;;;;;;;;5014859;28;20046;-78
2023/01/27 10:22:01;;;;;;;23.40;9.45;;;;;;;;;;5015573;28;20046;-77
2023/01/27 10:24:47;;;;;;;24.25;8.27;;;;;;;;;;5015733;28;20042;-78
2023/01/27 10:27:21;;;;;;;29.60;10.63;;;;;;;;;;4999493;28;20060;-78
2023/01/27 10:29:55;;;;;;;47.20;15.57;;;;;;;;;;5017541;28;20162;-78
2023/01/27 10:32:27;;;;;;;26.60;10.73;;;;;;;;;;5015699;28;20076;-78
2023/01/27 10:35:11;;;;;;;23.15;8.90;;;;;;;;;;5014637;28;20053;-78
2023/01/27 10:37:50;;;;;;;22.85;8.95;;;;;;;;;;5017681;28;20054;-79
2023/01/27 10:40:20;;;;;;;29.30;11.15;;;;;;;;;;5017682;28;20056;-79
2023/01/27 10:43:03;;;;;;;25.23;9.77;;;;;;;;;;5017192;28;20056;-80
2023/01/27 10:45:36;;;;;;;32.15;11.23;;;;;;;;;;4999259;28;20141;-79
2023/01/27 10:48:17;;;;;;;31.10;10.52;;;;;;;;;;5015343;28;20617;-79
2023/01/27 10:50:46;;;;;;;31.23;11.52;;;;;;;;;;5022010;28;20295;-80
2023/01/27 10:53:12;;;;;;;33.25;11.43;;;;;;;;;;5031451;28;20046;-79
2023/01/27 10:55:42;;;;;;;25.52;9.32;;;;;;;;;;5034237;28;20077;-79
2023/01/27 10:58:11;;;;;;;28.17;10.00;;;;;;;;;;5033747;28;20101;-79
2023/01/27 11:00:38;;;;;;;27.42;9.45;;;;;;;;;;5021438;28;20133;-78
2023/01/27 11:03:26;;;;;;;27.20;9.13;;;;;;;;;;5014888;28;20053;-79
2023/01/27 11:05:55;;;;;;;28.58;10.48;;;;;;;;;;5015543;28;20049;-79
2023/01/27 11:08:24;;;;;;;28.27;10.18;;;;;;;;;;5015913;28;20054;-79
2023/01/27 11:13:38;;;;;;;31.35;10.60;;;;;;;;;;5009356;28;20149;-79
2023/01/27 11:16:06;;;;;;;30.25;10.50;;;;;;;;;;4996075;28;20046;-79
2023/01/27 11:18:33;;;;;;;31.77;10.68;;;;;;;;;;4996238;28;20046;-79
2023/01/27 11:21:09;;;;;;;32.63;10.57;;;;;;;;;;4995857;28;20711;-80
2023/01/27 11:23:41;;;;;;;32.20;10.80;;;;;;;;;;4998815;28;20052;-79
2023/01/27 11:26:23;;;;;;;31.73;11.10;;;;;;;;;;4998221;28;20054;-80
2023/01/27 11:28:52;;;;;;;36.10;10.93;;;;;;;;;;4998095;28;20729;-79
2023/01/27 11:31:25;;;;;;;22.90;9.57;;;;;;;;;;4996318;28;20064;-79
2023/01/27 11:33:57;;;;;;;23.92;8.13;;;;;;;;;;5016257;28;20120;-79
2023/01/27 11:36:24;;;;;;;26.38;10.13;;;;;;;;;;5020578;28;20105;-79
2023/01/27 11:38:52;;;;;;;26.52;9.80;;;;;;;;;;5024612;28;20406;-79
2023/01/27 11:41:18;;;;;;;25.25;10.30;;;;;;;;;;5015157;28;20052;-79
2023/01/27 11:43:44;;;;;;;25.67;10.02;;;;;;;;;;5014011;28;20145;-78
2023/01/27 11:46:15;;;;;;;31.40;10.63;;;;;;;;;;5013825;28;20054;-79
2023/01/27 11:48:43;;;;;;;28.38;10.80;;;;;;;;;;5006675;28;20064;-79
2023/01/27 11:51:17;;;;;;;25.00;10.20;;;;;;;;;;5021651;28;20534;-78
2023/01/27 11:53:44;;;;;;;24.98;9.55;;;;;;;;;;5014046;28;20463;-78
2023/01/27 11:56:16;;;;;;;23.83;9.88;;;;;;;;;;5004064;28;20080;-78
2023/01/27 11:58:46;;;;;;;22.90;8.55;;;;;;;;;;4989791;28;20080;-79
2023/01/27 12:01:14;;;;;;;26.60;9.68;;;;;;;;;;5000243;28;20060;-80
2023/01/27 12:04:01;;;;;;;23.58;8.95;;;;;;;;;;4981302;28;20081;-77
2023/01/27 12:06:33;;;;;;;26.25;9.52;;;;;;;;;;4993750;28;20061;-78
2023/01/27 12:09:00;;;;;;;26.90;9.77;;;;;;;;;;4993832;28;20058;-80
2023/01/27 12:11:27;;;;;;;25.23;9.50;;;;;;;;;;4994965;28;20054;-78
2023/01/27 12:13:54;;;;;;;30.05;9.43;;;;;;;;;;5003483;28;20054;-78
2023/01/27 12:16:22;;;;;;;22.67;9.02;;;;;;;;;;5014403;28;20046;-78
2023/01/27 12:19:01;;;;;;;26.10;9.73;;;;;;;;;;5013660;28;20050;-78
2023/01/27 12:21:36;;;;;;;28.60;9.88;;;;;;;;;;5013778;28;20050;-78
2023/01/27 12:24:02;;;;;;;30.50;10.15;;;;;;;;;;5014749;28;20136;-79
2023/01/27 12:26:33;;;;;;;24.02;8.75;;;;;;;;;;5013821;28;20077;-78
2023/01/27 12:29:03;;;;;;;32.55;10.48;;;;;;;;;;5013162;28;20140;-79
2023/01/27 12:31:30;;;;;;;28.30;9.95;;;;;;;;;;5012507;28;20050;-78
2023/01/27 12:34:06;;;;;;;24.73;9.35;;;;;;;;;;4993768;28;20061;-78
2023/01/27 12:36:32;;;;;;;;;;;;;;;;;;5013102;28;20100;-78
2023/01/27 12:38:59;;;;;;;30.35;9.27;;;;;;;;;;5012489;28;19921;-79
2023/01/27 12:41:27;;;;;;;25.90;9.15;;;;;;;;;;5013340;28;20353;-79
2023/01/27 12:43:55;;;;;;;28.52;9.63;;;;;;;;;;5015125;28;20593;-78
2023/01/27 12:46:23;;;;;;;28.75;9.48;;;;;;;;;;5015314;28;20049;-79
2023/01/27 12:48:58;;;;;;;21.52;8.32;;;;;;;;;;5012491;28;20049;-78
2023/01/27 12:51:43;;;;;;;28.33;8.40;;;;;;;;;;5023382;28;20053;-79
2023/01/27 12:54:15;;;;;;;23.60;8.57;;;;;;;;;;5033626;28;20613;-80
2023/01/27 12:56:41;;;;;;;20.98;8.07;;;;;;;;;;5015771;28;20518;-79
2023/01/27 12:59:12;;;;;;;18.83;7.07;;;;;;;;;;5032215;28;20055;-79
2023/01/27 13:01:40;;;;;;;19.90;7.45;;;;;;;;;;5032487;28;20052;-79
2023/01/27 13:04:15;;;;;;;17.45;6.70;;;;;;;;;;5035082;28;20050;-80
2023/01/27 13:06:42;;;;;;;;;;;;;;;;;;5018896;28;20494;-79
2023/01/27 13:09:27;;;;;;;20.55;6.82;;;;;;;;;;5016624;28;19963;-79
2023/01/27 13:11:56;;;;;;;16.80;6.88;;;;;;;;;;5033797;28;20108;-80
2023/01/27 13:14:22;;;;;;;17.83;6.50;;;;;;;;;;5034883;28;20409;-80
2023/01/27 13:16:52;;;;;;;16.65;7.20;;;;;;;;;;5036706;28;20161;-80
2023/01/27 13:19:19;;;;;;;17.67;7.00;;;;;;;;;;5039162;28;20056;-80
2023/01/27 13:21:48;;;;;;;19.73;6.63;;;;;;;;;;5041826;28;20109;-80
2023/01/27 13:24:20;;;;;;;30.95;11.43;;;;;;;;;;5039871;28;20059;-80
2023/01/27 13:26:48;;;;;;;23.33;9.88;;;;;;;;;;5036319;28;20140;-80
2023/01/27 13:29:20;;;;;;;25.27;10.30;;;;;;;;;;5031390;28;20049;-78
2023/01/27 13:31:52;;;;;;;41.05;17.40;;;;;;;;;;5033607;28;20346;-78
2023/01/27 13:34:37;;;;;;;25.27;11.45;;;;;;;;;;5034384;28;20049;-78
2023/01/27 13:37:19;;;;;;;17.67;6.80;;;;;;;;;;5035427;28;20047;-78
2023/01/27 13:39:51;;;;;;;20.38;8.57;;;;;;;;;;5036789;28;20500;-78
2023/01/27 13:42:42;;;;;;;17.88;6.80;;;;;;;;;;5035743;28;20049;-78
2023/01/27 13:45:17;;;;;;;24.85;11.32;;;;;;;;;;5035625;28;20045;-78
2023/01/27 13:48:10;;;;;;;20.48;9.20;;;;;;;;;;5029935;28;20173;-78
2023/01/27 13:50:38;;;;;;;24.55;10.82;;;;;;;;;;5017979;28;20045;-79
2023/01/27 13:53:07;;;;;;;19.88;8.80;;;;;;;;;;5019090;28;20045;-80
2023/01/27 13:55:53;;;;;;;19.83;8.98;;;;;;;;;;5017336;28;20045;-79
2023/01/27 13:58:20;;;;;;;;;;;;;;;;;;5015645;28;20061;-78
2023/01/27 14:01:05;;;;;;;26.17;11.40;;;;;;;;;;5015543;28;19988;-80
2023/01/27 14:03:52;;;;;;;22.73;10.05;;;;;;;;;;5015243;28;20053;-79
2023/01/27 14:06:21;;;;;;;31.90;12.30;;;;;;;;;;5003645;28;20118;-80
2023/01/27 14:08:54;;;;;;;36.60;13.52;;;;;;;;;;5015301;28;20053;-80
2023/01/27 14:11:34;;;;;;;26.67;11.68;;;;;;;;;;5001354;28;20160;-79
2023/01/27 14:14:09;;;;;;;23.80;9.63;;;;;;;;;;5014773;28;20488;-79
2023/01/27 14:16:56;;;;;;;20.90;8.65;;;;;;;;;;5019375;28;20486;-80
2023/01/27 14:19:35;;;;;;;22.08;8.73;;;;;;;;;;5017905;28;20431;-79
2023/01/27 14:22:07;;;;;;;24.13;8.98;;;;;;;;;;5016893;28;20054;-79
2023/01/27 14:24:45;;;;;;;22.30;8.00;;;;;;;;;;5001385;28;20084;-79
2023/01/27 14:27:15;;;;;;;16.65;6.60;;;;;;;;;;5017675;28;20152;-80
2023/01/27 14:29:52;;;;;;;18.30;7.55;;;;;;;;;;5021586;28;20109;-79
2023/01/27 14:32:19;;;;;;;16.52;7.07;;;;;;;;;;5020121;28;20056;-79
2023/01/27 14:35:06;;;;;;;20.42;7.93;;;;;;;;;;5021048;28;20522;-80
2023/01/27 14:37:51;;;;;;;18.35;7.60;;;;;;;;;;5017905;28;20441;-79
2023/01/27 14:40:32;;;;;;;18.65;8.25;;;;;;;;;;5016187;28;20046;-80
2023/01/27 14:43:01;;;;;;;19.63;8.32;;;;;;;;;;5016390;28;20114;-79
2023/01/27 14:45:31;;;;;;;22.77;8.82;;;;;;;;;;5016080;28;20057;-81
2023/01/27 14:48:24;;;;;;;21.95;8.25;;;;;;;;;;5017964;28;20049;-80
2023/01/27 14:50:53;;;;;;;20.40;7.45;;;;;;;;;;5019973;28;20133;-80
2023/01/27 14:53:38;;;;;;;18.27;8.00;;;;;;;;;;5016784;28;20050;-80
2023/01/27 14:56:04;;;;;;;25.27;9.48;;;;;;;;;;5017244;28;20065;-80
2023/01/27 14:58:49;;;;;;;27.00;9.95;;;;;;;;;;5017545;28;20118;-80
2023/01/27 15:01:26;;;;;;;20.08;7.28;;;;;;;;;;5018625;28;20523;-79
2023/01/27 15:04:01;;;;;;;23.67;8.95;;;;;;;;;;5018166;28;20046;-79
2023/01/27 15:06:32;;;;;;;27.10;8.90;;;;;;;;;;5012539;28;20463;-79
2023/01/27 15:08:59;;;;;;;26.42;8.80;;;;;;;;;;5012608;28;20049;-80
2023/01/27 15:11:44;;;;;;;26.50;9.02;;;;;;;;;;5009269;28;20053;-79